South Wilmington, IL (60474)

11:52 PM CDT on September 04, 2015 (GMT -0500)
KILSOUTH4 | | Change Station
CLOSE
Current Station
Personal Weather Station
Location: South Wilmington, IL
Elevation: 581 ft
Nearby Weather Stations

Elev 581 ft 41.18 °N, 88.28 °W | Updated 4 seconds ago

Scattered Clouds
Scattered Clouds
71.3 °F
Feels Like 71.3 °F
N
0.0
Wind Variable Wind from SE
Gusts 33.0 mph

Today
High -- | Low -- °F
--% Chance of Precip.
Yesterday
High -- | Low -- °F
Precip. -- in
6:22 AM 7:21 PM
Waning Gibbous, 52% visible
Pressure 30.04 in
Visibility 5.0 miles
Clouds Scattered Clouds 7000 ft
Dew Point 67 °F
Humidity 87%
Rainfall 0.00 in
Snow Depth Not available.
UV 0 out of 12
Pollen 8.90 out of 12
Air Quality Not available.
Flu Activity Not available.
METAR KC09 050435Z AUTO 11004KT 5SM BR SCT070 21/20 A3004 RMK AO2 T02140199
Pressure 30.04 in
Visibility 5.0 miles
Clouds Scattered Clouds 7000 ft
Dew Point 67 °F
Humidity 87%
Rainfall 0.00 in
Snow Depth Not available.
UV 0 out of 12
Pollen 8.90 out of 12
Air Quality Not available.
Flu Activity Not available.
METAR KC09 050435Z AUTO 11004KT 5SM BR SCT070 21/20 A3004 RMK AO2 T02140199

10-Day Weather Forecast

×

Almanac

Astronomy

Sep. 04, 2015 Rise Set
Actual Time
Civil Twilight
Nautical Twilight
Astronomical Twilight
Moon
Length of Visible Light
Length of Day
Tomorrow will be .
, % of the Moon is Illuminated

Today's Extremes

State Highs State Lows

Community

WunderPhotos

Upload Photos

1,852,426 photos uploaded!

WunderBlogs® & News

Nearby

Air Quality

  Air Quality AQ Index Pollutant
Not available.

Snow Depth

Station Depth Elevation

Earthquake Activity

City Distance Mag. Time & Date
Minimum magnitude displayed is 2.5.

Coastal Water Temperatures

Place Temperature

Stations

Nearby Weather Stations

Station Location Temp. Windchill Dew Point Humidity Wind Precip. Elev Updated Type